バンダルスリブガワン の空港の天気 - METARとTAF

ブルネイ国際空港 ( WBSB / BWN ) - ブルネイ バンダルスリブガワン
飛行場実況気象(Metar)
観測時間10/22 22:30 BNT (10/22 14:30 UTC)
風向・風速南南西 2m/s
視程10km以上
天気現象
少しの雲 雲底高度 430m
全天の4割程度の雲 雲底高度 4270m
全天の8割程度の雲 雲底高度 9140m
気温27℃
湿度89%
気圧1010hPa
METARWBSB 221430Z 21004KT 9999 FEW014 SCT140 BKN300 27/25 Q1010 NOSIG
過去の天気等 Google飛行場航空写真 Wunderground天気予報

過去48時間のMETAR

飛行場予報(TAF)
発表時間: 10/22 18:50 BNT (10/22 10:50 UTC)
予報対象時間: 22日20時 BNT ~ 24日2時 BNT
風向・風速南南西 3m/s
視程10km以上
少しの雲 雲底高度 430m
少しの積乱雲 雲底高度 460m
23日2時 BNT ~ 23日8時 BNT に 確率 40% で一時的に
視程5000m
天気現象しゅう雨
全天の4割程度の雲 雲底高度 430m
TAF WBSB 221050Z 2212/2318 20006KT 9999 FEW014 FEW015CB
PROB40 TEMPO 2218/2300 5000 SHRA SCT014